Terminal Aerodrome Forecast
Issued by NWS

Home | Current Version | Previous Version | Text Only | Print | Product List | Glossary On
Versions: 1 2 3 4 5 6 7 8 9 10 11 12
000
FTUS42 KTBW 202331
TAFPGD
TAF
KPGD 202331Z 2100/2124 05004KT P6SM FEW040 OVC120
     FM210900 05004KT 2SM BR FEW030 BKN120
     FM211400 08008KT P6SM SCT030 SCT120
     FM211800 10010KT P6SM SCT045 SCT100=

USA.gov is the U.S. government's official web portal to all federal, state and local government web resources and services.